createdAt,value
2022-09-25T09:25:09.253Z,62.55
2022-09-25T09:28:05.207Z,62.19
2022-09-25T09:31:05.240Z,62.13
2022-09-25T09:34:12.088Z,61.07
2022-09-25T09:37:36.377Z,61.29
2022-09-25T09:40:27.517Z,62.15
2022-09-25T09:43:39.963Z,59.88
2022-09-25T09:46:41.069Z,60.07
2022-09-25T09:49:41.879Z,60.35
2022-09-25T09:52:38.069Z,59.25
2022-09-25T09:55:32.421Z,58.49
2022-09-25T09:58:33.019Z,58.17
2022-09-25T10:01:40.254Z,58.33
2022-09-25T10:04:33.728Z,57.46
2022-09-25T10:07:22.718Z,58.52
2022-09-25T10:10:18.915Z,58.83
2022-09-25T10:13:11.115Z,58.66
2022-09-25T10:16:12.786Z,56.54
2022-09-25T10:19:06.174Z,56.31
2022-09-25T10:22:10.026Z,55.99
2022-09-25T10:24:58.511Z,56.42
2022-09-25T10:27:48.892Z,56.25
2022-09-25T10:30:34.638Z,56.00
2022-09-25T10:33:23.304Z,55.13
2022-09-25T10:36:08.861Z,53.72
2022-09-25T10:39:08.364Z,53.89
2022-09-25T10:42:01.703Z,53.78
2022-09-25T10:44:46.738Z,53.70
2022-09-25T10:47:50.849Z,52.94
2022-09-25T10:50:36.901Z,54.25
2022-09-25T10:53:30.696Z,54.31
2022-09-25T10:56:20.545Z,53.30
2022-09-25T10:59:23.706Z,53.22
2022-09-25T11:02:25.123Z,51.60
2022-09-25T11:05:26.297Z,51.75
2022-09-25T11:08:15.297Z,50.70
2022-09-25T11:11:02.935Z,51.29
2022-09-25T11:13:55.338Z,51.29
2022-09-25T11:17:02.301Z,52.08
2022-09-25T11:20:13.955Z,52.61
2022-09-25T11:23:08.415Z,53.30
2022-09-25T11:26:28.806Z,54.97
2022-09-25T11:29:33.757Z,55.48
2022-09-25T11:32:31.959Z,55.71
2022-09-25T11:35:39.035Z,56.80
2022-09-25T11:39:05.271Z,62.30
2022-09-25T11:42:14.824Z,61.91
2022-09-25T11:45:09.114Z,60.11
2022-09-25T11:48:11.243Z,56.95
2022-09-25T11:51:04.406Z,56.73
2022-09-25T11:54:35.970Z,57.97
2022-09-25T11:57:50.195Z,57.59
2022-09-25T12:01:00.483Z,57.46
2022-09-25T12:04:06.001Z,56.92
2022-09-25T12:07:12.512Z,56.35
2022-09-25T12:10:13.044Z,53.88
2022-09-25T12:13:20.876Z,58.32
2022-09-25T12:16:35.661Z,56.41
2022-09-25T12:19:48.438Z,57.03
2022-09-25T12:23:00.299Z,54.73
2022-09-25T12:25:54.991Z,56.09
2022-09-25T12:28:43.336Z,52.95
2022-09-25T12:32:05.877Z,54.33
2022-09-25T12:35:08.059Z,51.45
2022-09-25T12:38:17.702Z,51.32
2022-09-25T12:41:12.855Z,51.17
2022-09-25T12:44:27.589Z,50.24
2022-09-25T12:47:33.237Z,52.77
2022-09-25T12:50:33.895Z,52.63
2022-09-25T12:53:24.948Z,52.11
2022-09-25T12:56:31.141Z,52.88
2022-09-25T12:59:21.954Z,53.27
2022-09-25T13:02:54.471Z,52.87
2022-09-25T13:05:59.068Z,53.02
2022-09-25T13:09:19.691Z,52.32
2022-09-25T13:12:27.092Z,53.67
2022-09-25T13:15:23.212Z,52.66
2022-09-25T13:18:23.165Z,53.20
2022-09-25T13:21:25.617Z,52.06
2022-09-25T13:24:17.572Z,53.12
2022-09-25T13:27:04.711Z,53.46
2022-09-25T13:29:54.737Z,52.55
2022-09-25T13:32:48.677Z,52.89
2022-09-25T13:35:33.954Z,53.26
2022-09-25T13:38:39.899Z,53.50
2022-09-25T13:41:25.932Z,51.77
2022-09-25T13:44:42.028Z,52.21
2022-09-25T13:47:27.485Z,51.11
2022-09-25T13:50:22.387Z,51.45
2022-09-25T13:53:22.825Z,51.73
2022-09-25T13:56:18.496Z,52.09
2022-09-25T13:59:10.233Z,52.73
2022-09-25T14:01:58.926Z,52.40
2022-09-25T14:04:48.190Z,50.87
2022-09-25T14:07:35.204Z,51.00
2022-09-25T14:10:22.484Z,51.43
2022-09-25T14:13:13.629Z,51.71
2022-09-25T14:16:02.368Z,52.11
2022-09-25T14:18:52.739Z,52.62
2022-09-25T14:21:44.366Z,52.61
2022-09-25T14:24:31.280Z,52.76
2022-09-25T14:27:26.435Z,54.76
2022-09-25T14:30:13.909Z,55.10
2022-09-25T14:33:20.917Z,53.58
2022-09-25T14:36:22.675Z,53.57
2022-09-25T14:39:30.019Z,53.72
2022-09-25T14:42:18.940Z,54.36
2022-09-25T14:45:35.052Z,54.76
2022-09-25T14:48:25.863Z,55.33
2022-09-25T14:51:15.839Z,55.09
2022-09-25T14:54:05.297Z,55.31
2022-09-25T14:56:55.681Z,56.07
2022-09-25T14:59:49.609Z,55.71
2022-09-25T15:02:41.786Z,55.04
2022-09-25T15:05:27.039Z,54.52
2022-09-25T15:08:38.675Z,54.52
2022-09-25T15:11:29.570Z,54.70
2022-09-25T15:14:19.769Z,55.53
2022-09-25T15:17:22.553Z,55.83
2022-09-25T15:20:14.293Z,56.58
2022-09-25T15:23:07.370Z,56.96
2022-09-25T15:25:58.802Z,57.42
2022-09-25T15:28:45.530Z,58.00
2022-09-25T15:31:37.555Z,58.58
2022-09-25T15:34:26.322Z,59.18
2022-09-25T15:37:27.568Z,59.82
2022-09-25T15:40:31.712Z,60.52
2022-09-25T15:43:19.927Z,60.88
2022-09-25T15:46:08.181Z,61.30
2022-09-25T15:48:58.255Z,61.29
2022-09-25T15:51:54.644Z,61.37
2022-09-25T15:54:44.998Z,61.76
2022-09-25T15:57:32.332Z,62.32
2022-09-25T16:00:41.190Z,62.14
2022-09-25T16:03:49.407Z,60.76
2022-09-25T16:06:42.985Z,59.95
2022-09-25T16:09:34.212Z,60.41
2022-09-25T16:12:22.723Z,60.41
2022-09-25T16:15:26.556Z,59.70
2022-09-25T16:18:24.415Z,59.28
2022-09-25T16:21:13.899Z,59.57
2022-09-25T16:23:59.462Z,59.88
2022-09-25T16:26:45.941Z,60.90
2022-09-25T16:29:39.045Z,61.39
2022-09-25T16:32:25.080Z,62.79
2022-09-25T16:35:57.536Z,63.14
2022-09-25T16:38:40.263Z,63.29
2022-09-25T16:41:26.082Z,62.21
2022-09-25T16:44:22.903Z,62.22
2022-09-25T16:47:35.097Z,61.98
2022-09-25T16:50:22.020Z,61.75
2022-09-25T16:53:07.535Z,61.96
2022-09-25T16:55:53.805Z,61.95
2022-09-25T16:58:39.277Z,62.29
2022-09-25T17:01:27.427Z,62.45
2022-09-25T17:04:15.578Z,62.45
2022-09-25T17:07:01.020Z,62.80
2022-09-25T17:09:47.286Z,63.23
2022-09-25T17:12:32.426Z,63.62
2022-09-25T17:15:23.825Z,63.80
2022-09-25T17:18:18.041Z,64.85
2022-09-25T17:21:10.231Z,65.17
2022-09-25T17:23:55.544Z,65.07
2022-09-25T17:26:40.750Z,65.19
2022-09-25T17:29:27.508Z,65.54
2022-09-25T17:32:17.367Z,65.77
2022-09-25T17:35:02.887Z,66.26
2022-09-25T17:37:48.027Z,66.58
2022-09-25T17:40:33.489Z,67.40
2022-09-25T17:43:19.620Z,67.52
2022-09-25T17:46:06.732Z,67.77
2022-09-25T17:48:54.751Z,68.18
2022-09-25T17:51:40.835Z,68.35
2022-09-25T17:54:28.009Z,68.36
2022-09-25T17:57:13.519Z,68.67
2022-09-25T17:59:58.827Z,69.15
2022-09-25T18:02:44.439Z,69.21
2022-09-25T18:05:31.646Z,69.30
2022-09-25T18:08:18.466Z,69.36
2022-09-25T18:11:03.756Z,69.51
2022-09-25T18:13:54.372Z,68.72
2022-09-25T18:16:42.091Z,69.33
2022-09-25T18:19:46.269Z,69.17
2022-09-25T18:22:31.789Z,68.94
